Time;durP1;ratioP1;P1;durP2;ratioP2;P2;SDS_P1;SDS_P2;PMS_P1;PMS_P2;Temp;Humidity;BMP_temperature;BMP_pressure;BME280_temperature;BME280_humidity;BME280_pressure;Samples;Min_cycle;Max_cycle;Signal;HPM_P1;HPM_P2
2023/11/24 00:00:43;;;;;;;20.90;4.00;;;9.70;99.90;;;;;;5092936;28;20378;-75
2023/11/24 00:03:09;;;;;;;25.57;4.50;;;9.70;99.90;;;;;;5094170;28;20378;-75
2023/11/24 00:05:35;;;;;;;32.60;5.00;;;9.70;99.90;;;;;;5094859;28;20412;-76
2023/11/24 00:08:03;;;;;;;24.30;4.43;;;9.70;99.90;;;;;;5095145;28;20386;-73
2023/11/24 00:10:28;;;;;;;23.67;4.03;;;9.70;97.20;;;;;;5094978;28;20432;-76
2023/11/24 00:12:55;;;;;;;27.53;4.63;;;9.70;95.30;;;;;;5095048;28;20398;-75
2023/11/24 00:15:21;;;;;;;28.92;4.80;;;9.70;92.00;;;;;;5094474;28;20390;-76
2023/11/24 00:17:47;;;;;;;30.85;6.10;;;9.80;86.20;;;;;;5073765;28;20911;-74
2023/11/24 00:20:15;;;;;;;26.73;5.57;;;9.70;88.00;;;;;;5073720;28;20397;-74
2023/11/24 00:22:42;;;;;;;25.40;4.20;;;9.80;86.90;;;;;;5091411;28;20860;-76
2023/11/24 00:25:09;;;;;;;25.07;4.20;;;9.80;86.40;;;;;;5091431;28;20397;-74
2023/11/24 00:27:35;;;;;;;33.03;5.70;;;9.80;79.10;;;;;;5073080;28;20468;-76
2023/11/24 00:30:04;;;;;;;24.83;4.57;;;9.80;79.90;;;;;;5091829;28;20378;-76
2023/11/24 00:32:29;;;;;;;32.65;5.20;;;9.80;75.50;;;;;;5091879;28;20389;-75
2023/11/24 00:34:56;;;;;;;31.02;5.10;;;9.80;72.60;;;;;;5092279;28;20397;-76
2023/11/24 00:37:21;;;;;;;28.13;4.88;;;9.80;71.60;;;;;;5092324;28;20382;-76
2023/11/24 00:39:49;;;;;;;26.20;4.77;;;9.80;69.40;;;;;;5091859;28;20382;-75
2023/11/24 00:42:16;;;;;;;23.08;3.75;;;9.80;70.10;;;;;;5091862;28;20382;-76
2023/11/24 00:44:41;;;;;;;32.53;5.80;;;9.80;66.80;;;;;;5095142;28;20444;-76
2023/11/24 00:47:07;;;;;;;34.83;6.00;;;9.80;69.80;;;;;;5092424;28;20397;-76
2023/11/24 00:49:34;;;;;;;36.53;6.13;;;9.80;68.60;;;;;;5073809;28;20386;-76
2023/11/24 00:52:00;;;;;;;31.45;5.70;;;9.80;68.50;;;;;;5091922;28;20382;-76
2023/11/24 00:54:26;;;;;;;28.40;5.30;;;9.80;70.30;;;;;;5091230;28;20420;-76
2023/11/24 00:56:51;;;;;;;32.17;5.10;;;9.80;69.20;;;;;;5091425;28;20740;-75
2023/11/24 00:59:17;;;;;;;27.20;4.80;;;9.80;63.20;;;;;;5091579;28;20877;-76
2023/11/24 01:01:43;;;;;;;21.93;4.80;;;9.70;61.30;;;;;;5091534;28;20872;-75
2023/11/24 01:04:08;;;;;;;14.50;3.80;;;9.70;58.90;;;;;;5091854;28;20832;-75
2023/11/24 01:06:34;;;;;;;20.53;4.90;;;9.60;54.40;;;;;;5091771;28;20879;-74
2023/11/24 01:09:00;;;;;;;32.70;4.97;;;9.50;56.80;;;;;;5073304;28;20465;-75
2023/11/24 01:11:26;;;;;;;33.22;6.35;;;9.10;81.40;;;;;;5091606;28;20382;-74
2023/11/24 01:13:51;;;;;;;34.95;5.78;;;8.60;99.90;;;;;;5094149;28;20423;-76
2023/11/24 01:16:17;;;;;;;35.55;7.13;;;8.40;99.90;;;;;;5093647;28;20386;-75
2023/11/24 01:18:44;;;;;;;35.10;7.00;;;8.40;99.90;;;;;;5092806;28;20397;-76
2023/11/24 01:21:09;;;;;;;27.77;6.75;;;8.30;99.90;;;;;;5091873;28;20473;-75
2023/11/24 01:23:35;;;;;;;30.37;5.53;;;8.20;99.90;;;;;;5091987;28;20410;-75
2023/11/24 01:26:02;;;;;;;28.20;5.20;;;8.20;98.10;;;;;;5091841;28;20385;-75
2023/11/24 01:28:28;;;;;;;26.83;5.82;;;8.20;96.40;;;;;;5091675;28;20401;-75
2023/11/24 01:30:54;;;;;;;27.40;6.20;;;8.20;94.00;;;;;;5093048;28;20419;-75
2023/11/24 01:33:19;;;;;;;20.93;5.13;;;8.10;96.40;;;;;;5095206;28;20406;-74
2023/11/24 01:35:45;;;;;;;23.47;4.63;;;8.10;90.60;;;;;;5093472;28;20440;-74
2023/11/24 01:38:11;;;;;;;20.70;4.05;;;8.20;90.00;;;;;;5096722;28;20739;-75
2023/11/24 01:40:37;;;;;;;27.83;5.30;;;8.20;85.60;;;;;;5096799;28;20457;-74
2023/11/24 01:43:03;;;;;;;16.67;3.88;;;8.10;88.80;;;;;;5078561;28;20385;-74
2023/11/24 01:45:30;;;;;;;21.10;4.80;;;8.20;88.30;;;;;;5096441;28;20393;-74
2023/11/24 01:47:56;;;;;;;21.85;4.10;;;8.20;83.70;;;;;;5095832;28;20393;-76
2023/11/24 01:50:21;;;;;;;26.33;4.90;;;8.30;84.80;;;;;;5094536;28;20386;-75
2023/11/24 01:52:50;;;;;;;22.90;4.70;;;8.30;87.00;;;;;;5091178;28;20425;-75
2023/11/24 01:55:16;;;;;;;14.80;4.10;;;8.30;81.50;;;;;;5093270;28;20396;-76
2023/11/24 01:57:43;;;;;;;23.63;5.53;;;8.40;79.40;;;;;;5095417;28;20374;-76
2023/11/24 02:00:13;;;;;;;20.85;4.60;;;8.30;81.30;;;;;;5095079;28;20499;-76
2023/11/24 02:02:40;;;;;;;23.80;4.70;;;8.40;80.00;;;;;;5095677;28;20374;-74
2023/11/24 02:05:06;;;;;;;27.50;4.70;;;8.40;77.50;;;;;;5099524;28;20446;-75
2023/11/24 02:07:32;;;;;;;23.37;5.40;;;8.40;75.90;;;;;;5101761;28;20397;-76
2023/11/24 02:09:57;;;;;;;18.37;4.17;;;8.40;75.70;;;;;;5099155;28;20386;-73
2023/11/24 02:12:23;;;;;;;17.95;4.00;;;8.30;77.20;;;;;;5094373;28;20490;-74
2023/11/24 02:14:49;;;;;;;20.90;4.85;;;8.30;80.50;;;;;;5094464;28;20384;-76
2023/11/24 02:17:17;;;;;;;21.30;4.95;;;8.10;85.60;;;;;;5094319;28;20389;-75
2023/11/24 02:19:44;;;;;;;26.95;5.07;;;8.10;86.60;;;;;;5094030;28;20373;-74
2023/11/24 02:22:10;;;;;;;30.35;5.15;;;8.10;86.20;;;;;;5094326;28;20377;-74
2023/11/24 02:24:36;;;;;;;21.02;5.35;;;8.10;82.70;;;;;;5094540;28;20397;-75
2023/11/24 02:27:01;;;;;;;32.67;5.33;;;8.10;82.10;;;;;;5094325;28;20876;-74
2023/11/24 02:29:27;;;;;;;31.73;5.93;;;8.10;79.50;;;;;;5093931;28;20389;-75
2023/11/24 02:31:54;;;;;;;25.83;5.40;;;8.10;77.50;;;;;;5094585;28;20945;-75
2023/11/24 02:34:20;;;;;;;26.13;5.45;;;8.10;79.20;;;;;;5093951;28;20421;-74
2023/11/24 02:36:45;;;;;;;22.10;4.77;;;8.00;79.10;;;;;;5094001;28;20390;-75
2023/11/24 02:39:11;;;;;;;21.63;4.90;;;8.00;77.80;;;;;;5094292;28;20410;-75
2023/11/24 02:41:36;;;;;;;24.73;5.40;;;8.00;75.80;;;;;;5093781;28;20465;-75
2023/11/24 02:44:02;;;;;;;18.40;4.70;;;8.00;75.30;;;;;;5093769;28;20870;-74
2023/11/24 02:46:28;;;;;;;23.33;5.00;;;7.90;73.90;;;;;;5093622;28;20390;-75
2023/11/24 02:48:53;;;;;;;25.57;5.23;;;7.90;74.90;;;;;;5093889;28;20443;-75
2023/11/24 02:51:19;;;;;;;21.40;4.50;;;7.90;74.40;;;;;;5093669;28;20489;-75
2023/11/24 02:53:45;;;;;;;21.20;4.60;;;7.90;73.70;;;;;;5093891;28;20397;-75
2023/11/24 02:56:11;;;;;;;23.00;4.97;;;7.90;71.40;;;;;;5093910;28;20386;-74
2023/11/24 02:58:37;;;;;;;21.77;4.43;;;7.90;71.20;;;;;;5093895;28;20733;-76
2023/11/24 03:01:03;;;;;;;20.77;4.07;;;8.00;68.80;;;;;;5093426;28;20393;-75
2023/11/24 03:03:29;;;;;;;23.50;4.35;;;8.00;67.00;;;;;;5093065;28;20516;-75
2023/11/24 03:05:55;;;;;;;25.70;4.50;;;8.00;67.80;;;;;;5074585;28;20432;-75
2023/11/24 03:08:21;;;;;;;26.45;4.97;;;8.10;65.90;;;;;;5075636;28;20468;-75
2023/11/24 03:10:47;;;;;;;24.10;4.40;;;8.10;65.90;;;;;;5093501;28;20927;-75
2023/11/24 03:13:13;;;;;;;25.88;4.90;;;8.10;67.20;;;;;;5093648;28;20397;-76
2023/11/24 03:15:40;;;;;;;21.60;5.00;;;8.10;68.90;;;;;;5075472;28;20386;-75
2023/11/24 03:18:06;;;;;;;20.80;4.47;;;8.00;71.90;;;;;;5059023;28;20749;-75
2023/11/24 03:20:32;;;;;;;18.95;4.40;;;8.00;72.20;;;;;;5094779;28;20382;-77
2023/11/24 03:22:57;;;;;;;18.70;3.97;;;8.10;69.70;;;;;;5094108;28;20386;-77
2023/11/24 03:25:23;;;;;;;21.53;4.60;;;8.20;69.00;;;;;;5093508;28;20382;-75
2023/11/24 03:27:49;;;;;;;24.53;3.97;;;8.20;68.10;;;;;;5093323;28;20386;-76
2023/11/24 03:30:15;;;;;;;20.43;3.90;;;8.20;67.40;;;;;;5092575;28;20724;-74
2023/11/24 03:32:41;;;;;;;21.70;4.32;;;8.30;66.50;;;;;;5092634;28;20740;-75
2023/11/24 03:35:07;;;;;;;23.30;5.43;;;8.30;66.40;;;;;;5093044;28;20378;-73
2023/11/24 03:37:32;;;;;;;14.52;3.70;;;8.30;65.30;;;;;;5092801;28;20389;-73
2023/11/24 03:39:58;;;;;;;20.50;4.00;;;8.30;63.10;;;;;;5094734;28;20378;-77
2023/11/24 03:42:24;;;;;;;22.27;3.90;;;8.40;60.70;;;;;;5096286;28;20378;-78
2023/11/24 03:44:49;;;;;;;23.83;4.47;;;8.40;60.10;;;;;;5095461;28;20406;-78
2023/11/24 03:47:16;;;;;;;25.88;4.40;;;8.30;61.10;;;;;;5097194;28;20461;-77
2023/11/24 03:49:42;;;;;;;20.17;4.28;;;8.30;62.50;;;;;;5096116;28;20393;-77
2023/11/24 03:52:07;;;;;;;17.73;4.17;;;8.40;59.00;;;;;;5097508;28;20394;-77
2023/11/24 03:54:33;;;;;;;17.33;3.37;;;8.50;57.80;;;;;;5096689;28;20410;-76
2023/11/24 03:56:59;;;;;;;18.10;3.40;;;8.50;56.60;;;;;;5098393;28;20390;-78
2023/11/24 03:59:25;;;;;;;16.40;4.25;;;8.60;55.90;;;;;;5078629;28;20388;-78
2023/11/24 04:01:50;;;;;;;14.48;3.22;;;8.50;57.40;;;;;;5096529;28;20519;-78
2023/11/24 04:04:16;;;;;;;16.98;3.75;;;8.40;55.40;;;;;;5096986;28;20386;-78
2023/11/24 04:06:41;;;;;;;14.23;2.90;;;8.50;57.40;;;;;;5096492;28;20955;-79
2023/11/24 04:09:07;;;;;;;16.33;3.20;;;8.60;52.30;;;;;;5078365;28;20413;-78
2023/11/24 04:11:33;;;;;;;16.40;3.20;;;8.60;51.10;;;;;;5097455;28;20385;-78
2023/11/24 04:13:59;;;;;;;10.13;2.90;;;8.50;53.80;;;;;;5100251;28;20402;-76
2023/11/24 04:16:25;;;;;;;16.30;2.83;;;8.40;54.50;;;;;;5100353;28;20382;-79
2023/11/24 04:18:51;;;;;;;10.38;2.47;;;8.40;54.00;;;;;;5078508;28;20420;-77
2023/11/24 04:21:16;;;;;;;11.70;2.27;;;8.60;52.60;;;;;;5096712;28;20548;-77
2023/11/24 04:23:42;;;;;;;14.47;2.70;;;8.60;50.80;;;;;;5097932;28;20446;-77
2023/11/24 04:26:08;;;;;;;12.97;3.20;;;8.60;51.70;;;;;;5100523;28;20389;-78
2023/11/24 04:28:33;;;;;;;8.80;2.60;;;8.60;52.30;;;;;;5096796;28;20374;-77
2023/11/24 04:30:59;;;;;;;15.45;3.65;;;8.50;52.70;;;;;;5099957;28;20386;-76
2023/11/24 04:33:25;;;;;;;23.50;3.42;;;8.50;53.70;;;;;;5100764;28;20394;-78
2023/11/24 04:35:51;;;;;;;8.18;2.33;;;8.50;53.60;;;;;;5100914;28;20393;-79
2023/11/24 04:38:17;;;;;;;13.30;3.00;;;8.40;51.40;;;;;;5099366;28;20374;-77
2023/11/24 04:40:43;;;;;;;10.55;2.42;;;8.40;53.80;;;;;;5096752;28;20384;-78
2023/11/24 04:43:08;;;;;;;11.52;2.60;;;8.40;52.70;;;;;;5098964;28;20382;-78
2023/11/24 04:45:35;;;;;;;9.57;3.17;;;8.40;52.60;;;;;;5097208;28;20485;-77
2023/11/24 04:48:01;;;;;;;9.57;2.60;;;8.40;52.70;;;;;;5095576;28;20386;-78
2023/11/24 04:50:27;;;;;;;10.93;3.05;;;8.30;53.10;;;;;;5098880;28;20389;-78
2023/11/24 04:52:52;;;;;;;10.90;2.50;;;8.30;54.80;;;;;;5096222;28;20810;-76
2023/11/24 04:55:18;;;;;;;13.75;2.80;;;8.40;52.60;;;;;;5094730;28;20465;-77
2023/11/24 04:57:49;;;;;;;8.05;2.63;;;8.50;51.90;;;;;;5095084;28;20438;-78
2023/11/24 05:00:16;;;;;;;17.50;3.00;;;8.40;51.80;;;;;;5094371;28;20461;-76
2023/11/24 05:02:42;;;;;;;11.23;2.70;;;8.40;51.40;;;;;;5093180;28;20730;-76
2023/11/24 05:05:08;;;;;;;9.95;2.22;;;8.40;51.80;;;;;;5093500;28;20389;-78
2023/11/24 05:07:34;;;;;;;10.50;2.80;;;8.30;52.20;;;;;;5094331;28;20370;-77
2023/11/24 05:10:00;;;;;;;15.20;2.45;;;8.30;52.40;;;;;;5095361;28;20374;-77
2023/11/24 05:12:25;;;;;;;7.97;2.17;;;8.40;52.20;;;;;;5103522;28;20447;-78
2023/11/24 05:14:51;;;;;;;14.55;3.33;;;8.50;51.70;;;;;;5113942;28;20868;-73
2023/11/24 05:17:17;;;;;;;13.48;2.33;;;8.40;51.70;;;;;;5094570;28;20565;-74
2023/11/24 05:19:43;;;;;;;13.27;2.60;;;8.40;51.80;;;;;;5110003;28;20406;-75
2023/11/24 05:22:08;;;;;;;9.87;2.80;;;8.50;50.10;;;;;;5113179;28;20390;-76
2023/11/24 05:24:34;;;;;;;16.37;2.73;;;8.50;52.60;;;;;;5104812;28;20390;-77
2023/11/24 05:27:00;;;;;;;13.93;2.10;;;8.30;55.40;;;;;;5092535;28;20469;-77
2023/11/24 05:29:25;;;;;;;14.20;2.75;;;8.30;57.00;;;;;;5092109;28;20386;-79
2023/11/24 05:31:51;;;;;;;10.88;2.40;;;8.20;59.20;;;;;;5096106;28;20937;-78
2023/11/24 05:34:16;;;;;;;11.30;2.80;;;8.10;58.60;;;;;;5099484;28;20405;-77
2023/11/24 05:36:45;;;;;;;11.75;2.60;;;8.00;57.70;;;;;;5086148;28;20469;-78
2023/11/24 05:39:11;;;;;;;15.05;2.72;;;7.80;58.40;;;;;;5104420;28;20412;-76
2023/11/24 05:41:37;;;;;;;11.50;2.05;;;7.80;60.30;;;;;;5108618;28;20434;-77
2023/11/24 05:44:03;;;;;;;5.43;1.50;;;7.80;61.80;;;;;;5106810;28;20386;-76
2023/11/24 05:49:05;;;;;;;8.98;2.42;;;7.80;60.10;;;;;;5067310;28;20488;-72
2023/11/24 05:51:32;;;;;;;13.27;2.88;;;7.80;59.90;;;;;;5069879;28;20749;-69
2023/11/24 05:53:58;;;;;;;11.50;3.40;;;7.80;61.00;;;;;;5069936;28;20449;-70
2023/11/24 05:56:23;;;;;;;11.60;2.80;;;7.90;61.20;;;;;;5069891;28;20461;-70
2023/11/24 05:58:51;;;;;;;9.63;2.50;;;7.90;60.90;;;;;;5069860;28;20388;-70
2023/11/24 06:01:20;;;;;;;11.18;2.65;;;7.80;62.60;;;;;;5069452;28;20432;-70
2023/11/24 06:03:46;;;;;;;9.63;2.70;;;7.90;62.30;;;;;;5069455;28;20695;-70
2023/11/24 06:06:11;;;;;;;11.27;2.40;;;7.90;62.30;;;;;;5069681;28;20470;-70
2023/11/24 06:08:37;;;;;;;11.35;2.63;;;7.90;61.00;;;;;;5069770;28;20384;-71
2023/11/24 06:11:02;;;;;;;11.63;2.78;;;7.80;61.90;;;;;;5069564;28;20382;-70
2023/11/24 06:13:28;;;;;;;12.98;2.75;;;7.90;62.00;;;;;;5069370;28;20446;-70
2023/11/24 06:15:56;;;;;;;12.35;2.50;;;7.90;61.40;;;;;;5069646;28;20430;-70
2023/11/24 06:18:22;;;;;;;12.75;2.13;;;8.00;60.10;;;;;;5069587;28;20384;-70
2023/11/24 06:20:47;;;;;;;13.00;2.40;;;8.00;60.30;;;;;;5071417;28;20525;-71
2023/11/24 06:23:13;;;;;;;15.57;3.07;;;8.00;62.20;;;;;;5071606;28;20395;-71
2023/11/24 06:25:38;;;;;;;13.60;2.40;;;7.90;62.30;;;;;;5071525;28;20858;-70
2023/11/24 06:28:04;;;;;;;16.10;2.90;;;8.00;61.70;;;;;;5071618;28;20462;-71
2023/11/24 06:30:30;;;;;;;14.10;2.45;;;8.10;62.30;;;;;;5071185;28;20388;-70
2023/11/24 06:32:55;;;;;;;8.47;2.30;;;8.10;61.00;;;;;;5070640;28;20404;-69
2023/11/24 06:35:21;;;;;;;9.63;2.10;;;8.10;60.40;;;;;;5069386;28;20375;-69
2023/11/24 06:37:46;;;;;;;7.10;2.00;;;8.10;59.70;;;;;;5069139;28;20699;-69
2023/11/24 06:40:13;;;;;;;10.37;2.67;;;8.10;59.40;;;;;;5069548;28;20759;-70
2023/11/24 06:42:40;;;;;;;14.40;2.05;;;8.10;59.60;;;;;;5073304;28;20478;-72
2023/11/24 06:45:09;;;;;;;16.70;2.63;;;8.00;60.20;;;;;;5073560;28;20783;-70
2023/11/24 06:47:39;;;;;;;11.38;2.70;;;8.00;60.30;;;;;;5072500;28;20387;-70
2023/11/24 06:50:08;;;;;;;12.87;2.50;;;8.00;61.90;;;;;;5073103;28;20805;-70
2023/11/24 06:52:33;;;;;;;9.23;2.33;;;8.00;62.00;;;;;;5073481;28;20419;-70
2023/11/24 06:54:59;;;;;;;13.30;2.43;;;8.00;62.40;;;;;;5074576;28;20732;-71
2023/11/24 06:57:25;;;;;;;10.23;2.50;;;8.00;63.20;;;;;;5073209;28;20379;-71
2023/11/24 06:59:51;;;;;;;11.30;2.60;;;7.90;64.50;;;;;;5073933;28;20390;-71
2023/11/24 07:02:17;;;;;;;12.80;2.50;;;7.70;64.90;;;;;;5073992;28;20388;-70
2023/11/24 07:04:43;;;;;;;26.13;1.90;;;7.80;60.20;;;;;;5054730;28;20449;-70
2023/11/24 07:07:08;;;;;;;7.75;1.73;;;7.70;58.60;;;;;;5072664;28;20517;-70
2023/11/24 07:09:34;;;;;;;9.13;1.90;;;7.60;59.40;;;;;;5072933;28;20387;-71
2023/11/24 07:11:59;;;;;;;7.97;1.60;;;7.50;65.70;;;;;;5074131;28;20440;-70
2023/11/24 07:14:25;;;;;;;7.40;1.80;;;7.30;66.10;;;;;;5074769;28;20546;-70
2023/11/24 07:16:52;;;;;;;7.17;1.70;;;7.10;72.30;;;;;;5063527;28;20451;-69
2023/11/24 07:19:19;;;;;;;9.55;1.70;;;6.90;71.30;;;;;;5066688;28;20396;-71
2023/11/24 07:21:45;;;;;;;7.60;1.90;;;6.90;70.20;;;;;;5071989;28;20475;-72
2023/11/24 07:24:10;;;;;;;9.32;2.22;;;6.80;74.90;;;;;;5073989;28;20398;-71
2023/11/24 07:26:36;;;;;;;6.30;1.80;;;6.80;74.60;;;;;;5064343;28;20464;-70
2023/11/24 07:29:02;;;;;;;9.73;2.28;;;6.70;85.30;;;;;;5059229;28;20490;-70
2023/11/24 07:31:28;;;;;;;6.22;1.90;;;6.70;87.70;;;;;;5054212;28;20407;-70
2023/11/24 07:33:54;;;;;;;11.25;2.28;;;6.60;89.40;;;;;;5072115;28;20829;-70
2023/11/24 07:36:20;;;;;;;7.28;2.05;;;6.70;90.30;;;;;;5072098;28;20453;-69
2023/11/24 07:38:45;;;;;;;8.40;2.65;;;6.70;86.60;;;;;;5071830;28;20379;-70
2023/11/24 07:41:11;;;;;;;5.40;2.10;;;6.70;87.80;;;;;;5054080;28;20737;-70
2023/11/24 07:43:37;;;;;;;9.70;2.40;;;6.70;83.10;;;;;;5069863;28;20451;-70
2023/11/24 07:46:07;;;;;;;13.73;2.50;;;6.80;83.70;;;;;;5051876;28;20460;-69
2023/11/24 07:48:33;;;;;;;9.73;2.30;;;6.70;81.60;;;;;;5051156;28;20406;-70
2023/11/24 07:51:00;;;;;;;7.13;2.45;;;6.80;80.40;;;;;;5052308;28;20389;-71
2023/11/24 07:53:27;;;;;;;12.27;3.60;;;6.90;80.50;;;;;;5051560;28;20489;-70
2023/11/24 07:55:52;;;;;;;11.02;2.83;;;7.00;79.10;;;;;;5051949;28;20962;-69
2023/11/24 07:58:19;;;;;;;8.33;2.70;;;7.00;76.50;;;;;;5051685;28;20413;-69
2023/11/24 08:00:45;;;;;;;11.00;3.65;;;7.10;79.20;;;;;;5051635;28;20480;-71
2023/11/24 08:03:11;;;;;;;12.70;3.25;;;7.10;82.20;;;;;;5051749;28;20705;-71
2023/11/24 08:05:36;;;;;;;13.52;4.38;;;7.10;84.80;;;;;;5051874;28;20385;-70
2023/11/24 08:08:02;;;;;;;11.98;3.40;;;7.10;83.40;;;;;;5051232;28;20403;-71
2023/11/24 08:10:28;;;;;;;14.23;3.80;;;7.30;79.60;;;;;;5060822;28;20395;-71
2023/11/24 08:12:53;;;;;;;10.13;4.27;;;7.40;80.90;;;;;;5071203;28;20416;-70
2023/11/24 08:15:19;;;;;;;10.43;3.80;;;7.50;78.60;;;;;;5071256;28;20392;-71
2023/11/24 08:17:45;;;;;;;15.67;4.07;;;7.50;74.60;;;;;;5071104;28;20395;-70
2023/11/24 08:20:10;;;;;;;14.23;4.03;;;7.50;75.40;;;;;;5060254;28;20374;-71
2023/11/24 08:22:37;;;;;;;15.75;3.58;;;7.50;78.10;;;;;;5051399;28;20396;-72
2023/11/24 08:25:03;;;;;;;14.50;4.10;;;7.40;76.90;;;;;;5055970;28;20821;-73
2023/11/24 08:27:29;;;;;;;11.27;3.33;;;7.30;81.10;;;;;;5070545;28;20389;-71
2023/11/24 08:29:55;;;;;;;15.60;4.00;;;7.30;77.70;;;;;;5061758;28;20864;-71
2023/11/24 08:32:21;;;;;;;12.07;3.30;;;7.30;79.10;;;;;;5050557;28;20476;-71
2023/11/24 08:34:47;;;;;;;8.68;2.90;;;7.30;79.40;;;;;;5051217;28;20405;-71
2023/11/24 08:37:13;;;;;;;8.57;2.70;;;7.10;70.80;;;;;;5050832;28;20464;-71
2023/11/24 08:39:39;;;;;;;13.95;3.03;;;7.10;73.90;;;;;;5050655;28;20477;-71
2023/11/24 08:42:05;;;;;;;11.13;2.63;;;7.30;73.40;;;;;;5050875;28;20405;-71
2023/11/24 08:44:31;;;;;;;10.53;3.00;;;7.40;70.90;;;;;;5050691;28;20395;-71
2023/11/24 08:46:57;;;;;;;11.57;3.17;;;7.40;70.10;;;;;;5050248;28;20861;-72
2023/11/24 08:49:22;;;;;;;8.90;2.45;;;7.40;67.70;;;;;;5050654;28;20381;-70
2023/11/24 08:51:48;;;;;;;7.78;2.35;;;7.40;67.60;;;;;;5050936;28;20508;-71
2023/11/24 08:54:13;;;;;;;14.90;2.80;;;7.30;65.90;;;;;;5050353;28;20452;-71
2023/11/24 08:56:39;;;;;;;9.18;2.05;;;7.30;67.70;;;;;;5050300;28;20377;-70
2023/11/24 08:59:08;;;;;;;6.53;2.00;;;7.40;63.10;;;;;;5050664;28;20381;-70
2023/11/24 09:01:34;;;;;;;7.10;1.80;;;7.40;62.00;;;;;;5050404;28;20380;-70
2023/11/24 09:03:59;;;;;;;7.80;2.20;;;7.40;59.30;;;;;;5049987;28;20764;-70
2023/11/24 09:06:31;;;;;;;5.90;2.17;;;7.40;62.10;;;;;;5050157;28;20436;-70
2023/11/24 09:08:58;;;;;;;7.68;2.75;;;7.40;63.30;;;;;;5050477;28;20385;-71
2023/11/24 09:11:24;;;;;;;12.02;2.78;;;7.60;60.10;;;;;;5050234;28;20389;-70
2023/11/24 09:13:51;;;;;;;8.67;2.00;;;7.60;60.30;;;;;;5050201;28;20469;-71
2023/11/24 09:16:17;;;;;;;12.88;2.30;;;7.60;59.20;;;;;;5050071;28;20748;-71
2023/11/24 09:18:43;;;;;;;10.13;3.00;;;7.50;60.30;;;;;;5050279;28;20381;-70
2023/11/24 09:21:10;;;;;;;10.88;3.25;;;7.60;61.60;;;;;;5049884;28;20377;-69
2023/11/24 09:23:36;;;;;;;10.25;2.90;;;7.60;66.20;;;;;;5049981;28;20407;-69
2023/11/24 09:26:02;;;;;;;11.98;2.60;;;7.60;63.50;;;;;;5049759;28;20416;-70
2023/11/24 09:28:29;;;;;;;10.98;2.85;;;7.70;58.90;;;;;;5050251;28;20389;-70
2023/11/24 09:30:55;;;;;;;8.77;1.92;;;7.60;61.90;;;;;;5050282;28;20755;-69
2023/11/24 09:33:21;;;;;;;7.75;2.17;;;7.60;56.60;;;;;;5049872;28;20401;-70
2023/11/24 09:35:47;;;;;;;7.07;1.87;;;7.50;53.80;;;;;;5050060;28;20389;-70
2023/11/24 09:38:13;;;;;;;7.50;1.55;;;7.50;54.30;;;;;;5049967;28;20405;-70
2023/11/24 09:40:39;;;;;;;7.10;1.45;;;7.40;53.60;;;;;;5049815;28;20416;-70
2023/11/24 09:43:05;;;;;;;5.00;1.30;;;7.40;52.30;;;;;;5049921;28;20385;-71
2023/11/24 09:45:31;;;;;;;5.20;1.50;;;7.30;53.60;;;;;;5049494;28;20878;-74
2023/11/24 09:47:57;;;;;;;5.03;1.38;;;7.30;55.90;;;;;;5056712;28;20733;-70
2023/11/24 09:50:24;;;;;;;3.45;1.20;;;7.20;51.10;;;;;;5067284;28;20398;-70
2023/11/24 09:52:51;;;;;;;5.88;1.38;;;7.30;54.60;;;;;;5049757;28;20389;-71
2023/11/24 09:55:17;;;;;;;6.38;1.10;;;7.00;58.40;;;;;;5062751;28;20418;-71
2023/11/24 09:57:43;;;;;;;5.23;1.60;;;6.80;59.70;;;;;;5067766;28;20383;-71
2023/11/24 10:00:11;;;;;;;5.32;1.48;;;6.90;62.90;;;;;;5067808;28;20375;-71
2023/11/24 10:02:39;;;;;;;4.95;1.52;;;7.00;58.20;;;;;;5049685;28;20811;-72
2023/11/24 10:05:06;;;;;;;5.63;1.40;;;7.10;57.10;;;;;;5067596;28;20399;-71
2023/11/24 10:07:36;;;;;;;4.60;1.30;;;7.30;57.00;;;;;;5065562;28;20396;-71
2023/11/24 10:10:04;;;;;;;3.95;1.50;;;7.40;53.00;;;;;;5066929;28;20850;-71
2023/11/24 10:12:30;;;;;;;5.82;1.40;;;7.40;51.00;;;;;;5067350;28;20421;-71
2023/11/24 10:14:56;;;;;;;3.10;1.30;;;7.50;52.20;;;;;;5067514;28;20408;-70
2023/11/24 10:17:23;;;;;;;3.00;1.10;;;7.40;49.20;;;;;;5071548;28;20474;-71
2023/11/24 10:19:50;;;;;;;3.88;1.20;;;7.50;49.70;;;;;;5070565;28;20388;-70
2023/11/24 10:22:19;;;;;;;5.25;1.00;;;7.30;48.70;;;;;;5053303;28;20850;-70
2023/11/24 10:24:45;;;;;;;2.50;1.00;;;7.40;48.30;;;;;;5071979;28;20391;-70
2023/11/24 10:27:21;;;;;;;4.32;0.90;;;7.40;47.60;;;;;;5071621;28;20398;-70
2023/11/24 10:29:48;;;;;;;2.53;0.90;;;7.30;48.20;;;;;;5070986;28;20411;-70
2023/11/24 10:32:15;;;;;;;4.50;1.83;;;7.40;48.50;;;;;;5070990;28;20383;-71
2023/11/24 10:34:42;;;;;;;4.03;1.50;;;7.50;50.50;;;;;;5052868;28;20777;-71
2023/11/24 10:37:10;;;;;;;4.07;1.20;;;7.60;49.70;;;;;;5070743;28;20387;-71
2023/11/24 10:39:42;;;;;;;3.13;1.02;;;7.50;47.70;;;;;;5070669;28;20819;-70
2023/11/24 10:42:09;;;;;;;4.03;1.10;;;7.40;47.90;;;;;;5068533;28;20945;-70
2023/11/24 10:44:41;;;;;;;3.45;1.00;;;7.50;49.30;;;;;;5070615;28;20391;-70
2023/11/24 10:47:11;;;;;;;6.40;0.90;;;7.50;47.80;;;;;;5058037;28;20409;-70
2023/11/24 10:49:44;;;;;;;7.95;1.20;;;7.50;48.60;;;;;;5050466;28;20401;-70
2023/11/24 10:52:31;;;;;;;4.25;1.70;;;7.50;47.60;;;;;;5050550;28;20797;-71
2023/11/24 10:55:03;;;;;;;3.50;0.90;;;7.60;48.10;;;;;;5050915;28;20435;-70
2023/11/24 10:57:32;;;;;;;3.28;1.35;;;7.50;46.40;;;;;;5050556;28;20401;-70
2023/11/24 10:59:58;;;;;;;9.10;1.80;;;7.50;46.50;;;;;;5050587;28;20385;-70
2023/11/24 11:02:25;;;;;;;5.43;1.10;;;7.50;45.80;;;;;;5051182;28;20596;-70
2023/11/24 11:05:18;;;;;;;4.25;1.20;;;7.40;44.90;;;;;;5055982;28;20482;-70
2023/11/24 11:08:19;;;;;;;6.13;2.00;;;7.50;45.80;;;;;;5057552;28;20515;-70
2023/11/24 11:11:06;;;;;;;7.07;2.15;;;7.60;45.80;;;;;;5059870;28;20431;-70
2023/11/24 11:13:39;;;;;;;7.68;1.77;;;7.80;46.90;;;;;;5071338;28;20411;-71
2023/11/24 11:16:09;;;;;;;6.50;1.30;;;7.90;44.90;;;;;;5076604;28;20376;-71
2023/11/24 11:18:35;;;;;;;6.60;1.60;;;7.80;43.70;;;;;;5057258;28;20581;-71
2023/11/24 11:21:19;;;;;;;5.32;1.67;;;7.70;44.00;;;;;;5074482;28;20384;-70
2023/11/24 11:23:56;;;;;;;4.38;1.25;;;7.60;44.70;;;;;;5074824;28;20486;-72
2023/11/24 11:26:49;;;;;;;8.27;2.17;;;7.50;44.60;;;;;;5073910;28;20428;-72
2023/11/24 11:29:26;;;;;;;6.70;1.52;;;7.70;46.70;;;;;;5070136;28;20960;-73
2023/11/24 11:31:55;;;;;;;7.90;2.00;;;7.70;46.50;;;;;;5074265;28;20406;-72
2023/11/24 11:34:31;;;;;;;5.53;1.90;;;7.70;47.70;;;;;;5071782;28;20587;-74
2023/11/24 11:37:11;;;;;;;5.63;1.88;;;7.70;53.60;;;;;;5073902;28;20432;-72
2023/11/24 11:39:53;;;;;;;6.65;2.40;;;7.50;57.10;;;;;;5073973;28;20872;-72
2023/11/24 11:42:39;;;;;;;8.40;2.20;;;7.50;58.60;;;;;;5058317;28;20404;-72
2023/11/24 11:45:12;;;;;;;5.10;1.13;;;7.50;57.50;;;;;;5036650;28;20758;-73
2023/11/24 11:47:51;;;;;;;6.13;1.67;;;7.20;57.70;;;;;;5062922;23;20468;-73
2023/11/24 11:50:21;;;;;;;2.58;1.10;;;7.10;59.90;;;;;;5090842;28;20412;-74
2023/11/24 11:52:49;;;;;;;4.82;1.77;;;6.90;56.80;;;;;;5093467;28;20416;-73
2023/11/24 11:55:17;;;;;;;4.50;1.75;;;6.90;59.80;;;;;;5103172;28;20384;-73
2023/11/24 11:57:43;;;;;;;8.68;2.00;;;6.90;62.30;;;;;;5092455;28;20758;-74
2023/11/24 12:00:09;;;;;;;4.93;1.50;;;7.00;59.60;;;;;;5077776;28;20416;-74
2023/11/24 12:02:36;;;;;;;5.00;1.77;;;6.90;54.10;;;;;;5110611;28;20593;-73
2023/11/24 12:05:03;;;;;;;3.85;1.40;;;6.70;52.50;;;;;;5084048;28;20911;-72
2023/11/24 12:07:31;;;;;;;5.53;1.30;;;6.70;52.50;;;;;;5070005;28;20488;-72
2023/11/24 12:09:57;;;;;;;5.40;1.20;;;6.70;51.40;;;;;;5073557;28;20407;-73
2023/11/24 12:12:23;;;;;;;5.07;1.30;;;6.60;49.20;;;;;;5077525;28;20406;-71
2023/11/24 12:14:53;;;;;;;3.50;1.10;;;6.70;48.10;;;;;;5090073;28;20515;-73
2023/11/24 12:17:21;;;;;;;2.45;1.20;;;6.70;48.70;;;;;;5083035;28;20389;-73
2023/11/24 12:19:48;;;;;;;6.80;1.30;;;6.80;48.10;;;;;;5092137;28;20389;-72
2023/11/24 12:22:14;;;;;;;3.78;1.10;;;6.90;47.90;;;;;;5110962;28;20802;-72
2023/11/24 12:24:40;;;;;;;2.23;1.00;;;6.90;46.20;;;;;;5104103;28;20546;-72
2023/11/24 12:27:07;;;;;;;2.60;1.00;;;6.90;45.40;;;;;;5094603;28;20416;-71
2023/11/24 12:29:33;;;;;;;3.90;1.10;;;6.90;46.00;;;;;;5086923;28;20403;-72
2023/11/24 12:32:03;;;;;;;4.53;1.30;;;6.90;44.70;;;;;;5097593;28;20896;-73
2023/11/24 12:34:29;;;;;;;3.42;1.20;;;6.90;45.00;;;;;;5084846;28;20409;-72
2023/11/24 12:36:55;;;;;;;5.20;1.50;;;6.90;46.40;;;;;;5090481;28;20795;-74
2023/11/24 12:39:30;;;;;;;7.57;1.80;;;7.00;45.60;;;;;;5090008;28;20390;-74
2023/11/24 12:41:56;;;;;;;4.30;1.60;;;7.10;47.80;;;;;;5091981;28;20447;-73
2023/11/24 12:44:25;;;;;;;4.83;1.47;;;7.10;46.30;;;;;;5070699;28;20766;-73
2023/11/24 12:47:07;;;;;;;6.47;1.40;;;7.00;46.50;;;;;;5094926;28;20909;-71
2023/11/24 12:49:51;;;;;;;12.77;1.73;;;6.90;47.60;;;;;;5090292;28;20732;-73
2023/11/24 12:52:17;;;;;;;4.35;1.73;;;7.00;48.00;;;;;;5092285;28;20785;-71